createdAt,value
2023-04-26T00:00:38.567Z,65.81
2023-04-26T00:03:10.827Z,66.12
2023-04-26T00:05:41.070Z,65.77
2023-04-26T00:08:11.938Z,66.29
2023-04-26T00:10:42.901Z,66.02
2023-04-26T00:13:12.887Z,65.86
2023-04-26T00:15:46.038Z,65.85
2023-04-26T00:18:16.311Z,65.85
2023-04-26T00:20:48.787Z,66.05
2023-04-26T00:23:18.993Z,66.18
2023-04-26T00:25:49.127Z,66.44
2023-04-26T00:28:19.506Z,66.12
2023-04-26T00:30:54.042Z,66.07
2023-04-26T00:33:25.211Z,67.89
2023-04-26T00:35:56.763Z,66.57
2023-04-26T00:38:26.963Z,66.41
2023-04-26T00:40:56.989Z,66.27
2023-04-26T00:43:27.034Z,66.22
2023-04-26T00:45:59.977Z,66.20
2023-04-26T00:48:30.755Z,66.20
2023-04-26T00:51:01.630Z,66.43
2023-04-26T00:53:32.647Z,66.44
2023-04-26T00:56:03.625Z,65.99
2023-04-26T00:58:34.935Z,66.38
2023-04-26T01:01:08.217Z,66.22
2023-04-26T01:03:40.833Z,66.58
2023-04-26T01:06:15.362Z,66.60
2023-04-26T01:08:47.412Z,68.81
2023-04-26T01:11:18.377Z,66.74
2023-04-26T01:13:52.165Z,66.32
2023-04-26T01:16:31.296Z,66.49
2023-04-26T01:19:02.379Z,66.41
2023-04-26T01:21:33.507Z,66.48
2023-04-26T01:24:09.464Z,66.45
2023-04-26T01:26:46.113Z,66.37
2023-04-26T01:29:22.054Z,66.62
2023-04-26T01:31:52.867Z,66.69
2023-04-26T01:34:27.222Z,66.43
2023-04-26T01:37:08.385Z,66.04
2023-04-26T01:39:43.124Z,66.56
2023-04-26T01:42:14.630Z,66.77
2023-04-26T01:44:48.268Z,66.84
2023-04-26T01:47:18.500Z,67.23
2023-04-26T01:49:49.046Z,67.11
2023-04-26T01:52:20.812Z,66.73
2023-04-26T01:54:53.542Z,66.69
2023-04-26T01:57:26.506Z,66.68
2023-04-26T01:59:57.157Z,66.75
2023-04-26T02:02:29.445Z,66.76
2023-04-26T02:05:00.099Z,66.87
2023-04-26T02:07:30.403Z,66.82
2023-04-26T02:10:03.680Z,67.18
2023-04-26T02:12:37.603Z,67.11
2023-04-26T02:15:08.870Z,67.03
2023-04-26T02:17:40.136Z,67.25
2023-04-26T02:20:15.753Z,67.12
2023-04-26T02:22:53.046Z,67.18
2023-04-26T02:25:25.752Z,67.44
2023-04-26T02:27:57.307Z,69.63
2023-04-26T02:30:30.652Z,67.69
2023-04-26T02:33:01.380Z,67.33
2023-04-26T02:35:32.745Z,67.47
2023-04-26T02:38:02.852Z,67.27
2023-04-26T02:40:36.011Z,67.16
2023-04-26T02:43:06.690Z,67.13
2023-04-26T02:45:37.753Z,67.22
2023-04-26T02:48:09.158Z,67.28
2023-04-26T02:50:39.569Z,67.13
2023-04-26T02:53:09.615Z,67.32
2023-04-26T02:55:44.925Z,67.13
2023-04-26T02:58:14.994Z,67.09
2023-04-26T03:00:50.074Z,67.26
2023-04-26T03:03:20.598Z,67.33
2023-04-26T03:06:09.025Z,67.26
2023-04-26T03:08:39.248Z,67.42
2023-04-26T03:11:14.016Z,67.32
2023-04-26T03:13:44.314Z,67.53
2023-04-26T03:16:16.518Z,67.59
2023-04-26T03:18:47.630Z,67.49
2023-04-26T03:21:18.424Z,67.48
2023-04-26T03:23:52.019Z,67.64
2023-04-26T03:26:24.680Z,67.69
2023-04-26T03:28:56.025Z,67.63
2023-04-26T03:31:27.714Z,67.61
2023-04-26T03:33:58.561Z,67.60
2023-04-26T03:36:28.731Z,67.72
2023-04-26T03:38:59.525Z,67.46
2023-04-26T03:41:33.432Z,67.80
2023-04-26T03:44:08.362Z,67.56
2023-04-26T03:46:38.656Z,67.86
2023-04-26T03:49:09.533Z,68.37
2023-04-26T03:51:39.793Z,68.11
2023-04-26T03:54:11.350Z,68.25
2023-04-26T03:56:44.016Z,68.12
2023-04-26T03:59:15.529Z,67.69
2023-04-26T04:01:46.348Z,67.77
2023-04-26T04:04:16.841Z,67.61
2023-04-26T04:06:48.077Z,67.87
2023-04-26T04:09:21.548Z,67.36
2023-04-26T04:11:55.417Z,67.76
2023-04-26T04:14:28.991Z,67.75
2023-04-26T04:17:03.462Z,67.92
2023-04-26T04:19:33.997Z,67.70
2023-04-26T04:22:06.305Z,67.80
2023-04-26T04:24:40.053Z,67.58
2023-04-26T04:27:12.702Z,67.32
2023-04-26T04:29:44.306Z,69.51
2023-04-26T04:32:17.479Z,67.37
2023-04-26T04:34:49.493Z,66.90
2023-04-26T04:37:23.041Z,66.75
2023-04-26T04:39:53.535Z,66.59
2023-04-26T04:42:27.454Z,66.75
2023-04-26T04:45:00.093Z,66.65
2023-04-26T04:47:34.340Z,66.83
2023-04-26T04:50:07.241Z,66.85
2023-04-26T04:52:39.886Z,66.80
2023-04-26T04:55:10.476Z,66.62
2023-04-26T04:57:44.880Z,66.53
2023-04-26T05:00:17.028Z,66.87
2023-04-26T05:02:51.585Z,66.95
2023-04-26T05:05:21.996Z,67.14
2023-04-26T05:07:54.546Z,66.80
2023-04-26T05:10:24.654Z,66.89
2023-04-26T05:13:06.959Z,66.75
2023-04-26T05:15:41.388Z,66.77
2023-04-26T05:18:11.635Z,66.95
2023-04-26T05:20:42.186Z,66.71
2023-04-26T05:23:13.072Z,66.65
2023-04-26T05:25:43.271Z,65.58
2023-04-26T05:28:51.264Z,63.89
2023-04-26T05:31:36.133Z,62.24
2023-04-26T05:34:09.270Z,59.05
2023-04-26T05:36:43.876Z,56.94
2023-04-26T05:39:15.294Z,54.98
2023-04-26T05:41:46.591Z,53.38
2023-04-26T05:44:19.559Z,52.47
2023-04-26T05:46:53.018Z,51.89
2023-04-26T05:49:23.716Z,51.54
2023-04-26T05:51:56.324Z,51.56
2023-04-26T05:54:26.504Z,51.86
2023-04-26T05:56:58.450Z,51.53
2023-04-26T05:59:33.570Z,51.13
2023-04-26T06:02:05.034Z,51.10
2023-04-26T06:04:35.311Z,51.23
2023-04-26T06:07:14.588Z,51.79
2023-04-26T06:09:44.604Z,52.96
2023-04-26T06:12:14.880Z,54.44
2023-04-26T06:14:50.407Z,56.01
2023-04-26T06:17:26.936Z,56.89
2023-04-26T06:19:57.328Z,57.18
2023-04-26T06:22:28.795Z,57.25
2023-04-26T06:24:59.038Z,57.77
2023-04-26T06:27:31.095Z,58.08
2023-04-26T06:30:05.159Z,58.03
2023-04-26T06:32:38.241Z,58.70
2023-04-26T06:35:09.626Z,59.37
2023-04-26T06:37:40.895Z,59.25
2023-04-26T06:40:22.459Z,59.58
2023-04-26T06:42:55.834Z,59.96
2023-04-26T06:45:51.258Z,60.86
2023-04-26T06:48:23.260Z,60.99
2023-04-26T06:50:57.296Z,61.24
2023-04-26T06:53:27.691Z,61.65
2023-04-26T06:56:01.394Z,60.87
2023-04-26T06:58:31.805Z,60.38
2023-04-26T07:01:06.560Z,59.86
2023-04-26T07:03:37.423Z,59.95
2023-04-26T07:06:08.119Z,60.50
2023-04-26T07:08:39.246Z,60.86
2023-04-26T07:11:16.163Z,61.06
2023-04-26T07:13:46.691Z,61.58
2023-04-26T07:16:20.010Z,61.56
2023-04-26T07:18:51.969Z,62.00
2023-04-26T07:21:22.970Z,62.38
2023-04-26T07:23:56.925Z,62.57
2023-04-26T07:26:28.544Z,62.84
2023-04-26T07:29:01.264Z,62.48
2023-04-26T07:31:36.197Z,62.08
2023-04-26T07:34:08.663Z,61.64
2023-04-26T07:36:42.814Z,60.97
2023-04-26T07:39:15.837Z,61.03
2023-04-26T07:41:45.915Z,61.31
2023-04-26T07:44:16.036Z,61.10
2023-04-26T07:46:50.921Z,60.94
2023-04-26T07:49:21.757Z,60.99
2023-04-26T07:51:53.976Z,60.86
2023-04-26T07:54:24.200Z,61.14
2023-04-26T07:56:54.796Z,60.96
2023-04-26T07:59:26.866Z,61.18
2023-04-26T08:01:59.772Z,61.11
2023-04-26T08:04:37.089Z,61.15
2023-04-26T08:07:11.093Z,60.88
2023-04-26T08:09:41.292Z,60.83
2023-04-26T08:12:13.925Z,60.77
2023-04-26T08:14:44.153Z,60.19
2023-04-26T08:17:17.338Z,59.80
2023-04-26T08:20:00.324Z,59.90
2023-04-26T08:22:30.571Z,59.69
2023-04-26T08:25:00.645Z,59.56
2023-04-26T08:27:32.089Z,59.27
2023-04-26T08:30:04.427Z,59.29
2023-04-26T08:32:37.658Z,58.82
2023-04-26T08:35:09.438Z,58.69
2023-04-26T08:37:45.531Z,59.07
2023-04-26T08:40:15.770Z,59.18
2023-04-26T08:42:49.109Z,59.16
2023-04-26T08:45:21.081Z,59.04
2023-04-26T08:48:01.520Z,59.66
2023-04-26T08:50:36.633Z,59.41
2023-04-26T08:53:11.076Z,58.82
2023-04-26T08:55:42.986Z,58.74
2023-04-26T08:58:14.869Z,57.83
2023-04-26T09:00:46.647Z,57.65
2023-04-26T09:03:21.298Z,57.45
2023-04-26T09:05:51.692Z,58.11
2023-04-26T09:08:24.957Z,57.79
2023-04-26T09:10:56.160Z,57.95
2023-04-26T09:13:31.982Z,58.07
2023-04-26T09:16:04.632Z,58.62
2023-04-26T09:18:37.856Z,59.03
2023-04-26T09:21:10.943Z,58.95
2023-04-26T09:24:00.091Z,58.20
2023-04-26T09:26:32.702Z,57.66
2023-04-26T09:29:19.177Z,57.15
2023-04-26T09:31:50.998Z,56.54
2023-04-26T09:34:23.847Z,56.55
2023-04-26T09:36:57.302Z,56.28
2023-04-26T09:39:43.733Z,56.05
2023-04-26T09:42:16.160Z,55.64
2023-04-26T09:44:46.446Z,55.33
2023-04-26T09:47:16.980Z,55.67
2023-04-26T09:49:51.996Z,56.95
2023-04-26T09:52:26.170Z,57.52
2023-04-26T09:54:58.295Z,57.92
2023-04-26T09:57:28.430Z,57.57
2023-04-26T10:00:06.178Z,57.34
2023-04-26T10:02:37.005Z,56.55
2023-04-26T10:05:11.482Z,56.81
2023-04-26T10:07:42.484Z,56.69
2023-04-26T10:10:15.198Z,57.12
2023-04-26T10:12:45.481Z,56.66
2023-04-26T10:15:16.059Z,56.55
2023-04-26T10:17:46.455Z,56.46
2023-04-26T10:20:23.997Z,55.85
2023-04-26T10:23:01.302Z,55.39
2023-04-26T10:25:43.100Z,54.85
2023-04-26T10:28:13.149Z,54.91
2023-04-26T10:31:00.649Z,54.43
2023-04-26T10:33:31.028Z,55.89
2023-04-26T10:36:11.718Z,54.92
2023-04-26T10:38:43.551Z,56.17
2023-04-26T10:41:33.112Z,55.71
2023-04-26T10:44:46.082Z,54.63
2023-04-26T10:47:32.650Z,56.31
2023-04-26T10:50:11.402Z,56.58
2023-04-26T10:53:10.314Z,54.07
2023-04-26T10:55:44.530Z,55.62
2023-04-26T10:58:29.583Z,48.20
2023-04-26T11:01:34.118Z,54.70
2023-04-26T11:04:10.610Z,54.97
2023-04-26T11:06:53.961Z,53.90
2023-04-26T11:09:44.011Z,53.70
2023-04-26T11:12:16.625Z,54.69
2023-04-26T11:14:48.651Z,55.05
2023-04-26T11:17:20.146Z,54.95
2023-04-26T11:19:52.050Z,54.81
2023-04-26T11:22:25.334Z,54.73
2023-04-26T11:24:58.434Z,54.85
2023-04-26T11:27:32.844Z,55.31
2023-04-26T11:30:06.745Z,55.04
2023-04-26T11:32:36.994Z,54.70
2023-04-26T11:35:07.411Z,54.51
2023-04-26T11:37:40.457Z,54.08
2023-04-26T11:40:19.468Z,53.83
2023-04-26T11:42:57.709Z,54.27
2023-04-26T11:45:28.173Z,54.16
2023-04-26T11:47:58.966Z,53.84
2023-04-26T11:50:30.965Z,53.78
2023-04-26T11:53:04.422Z,53.33
2023-04-26T11:55:39.732Z,52.88
2023-04-26T11:58:17.592Z,53.79
2023-04-26T12:01:03.132Z,54.20
2023-04-26T12:03:35.618Z,54.81
2023-04-26T12:06:08.492Z,54.49
2023-04-26T12:08:38.606Z,54.83
2023-04-26T12:11:11.601Z,54.77
2023-04-26T12:13:43.592Z,54.67
2023-04-26T12:16:25.663Z,55.18
2023-04-26T12:18:57.376Z,55.69
2023-04-26T12:21:29.873Z,55.54
2023-04-26T12:24:01.981Z,54.59
2023-04-26T12:26:49.813Z,54.52
2023-04-26T12:29:19.814Z,55.10
2023-04-26T12:31:52.542Z,55.08
2023-04-26T12:34:22.776Z,55.65
2023-04-26T12:36:55.095Z,55.61
2023-04-26T12:39:25.058Z,55.54
2023-04-26T12:41:58.218Z,56.13
2023-04-26T12:44:28.445Z,56.09
2023-04-26T12:46:58.929Z,56.29
2023-04-26T12:49:30.898Z,56.01
2023-04-26T12:52:03.782Z,55.74
2023-04-26T12:54:33.914Z,55.33
2023-04-26T12:57:17.880Z,54.71
2023-04-26T12:59:47.987Z,54.78
2023-04-26T13:02:19.948Z,54.35
2023-04-26T13:04:50.120Z,54.09
2023-04-26T13:07:21.423Z,54.19
2023-04-26T13:09:51.423Z,54.56
2023-04-26T13:12:24.490Z,54.05
2023-04-26T13:14:57.606Z,54.82
2023-04-26T13:17:28.811Z,55.07
2023-04-26T13:19:58.894Z,55.10
2023-04-26T13:22:29.002Z,55.23
2023-04-26T13:24:59.123Z,55.57
2023-04-26T13:27:32.068Z,55.64
2023-04-26T13:30:02.264Z,55.30
2023-04-26T13:32:37.043Z,55.34
2023-04-26T13:35:07.809Z,54.97
2023-04-26T13:37:37.946Z,54.79
2023-04-26T13:40:11.698Z,55.17
2023-04-26T13:42:46.603Z,55.18
2023-04-26T13:45:19.514Z,55.27
2023-04-26T13:47:49.924Z,55.04
2023-04-26T13:50:20.499Z,54.57
2023-04-26T13:52:52.498Z,54.52
2023-04-26T13:55:23.006Z,54.08
2023-04-26T13:57:58.297Z,53.98
2023-04-26T14:00:33.055Z,53.78
2023-04-26T14:03:15.477Z,53.53
2023-04-26T14:05:46.182Z,53.35
2023-04-26T14:08:16.423Z,53.51
2023-04-26T14:10:48.969Z,53.27
2023-04-26T14:13:21.937Z,54.12
2023-04-26T14:15:55.078Z,54.47
2023-04-26T14:18:25.444Z,54.55
2023-04-26T14:20:55.732Z,54.40
2023-04-26T14:23:26.160Z,54.22
2023-04-26T14:25:59.218Z,54.55
2023-04-26T14:28:32.274Z,54.44
2023-04-26T14:31:02.433Z,54.75
2023-04-26T14:33:32.666Z,54.50
2023-04-26T14:36:05.352Z,54.60
2023-04-26T14:38:35.513Z,54.87
2023-04-26T14:41:08.774Z,55.03
2023-04-26T14:43:41.513Z,54.49
2023-04-26T14:46:12.089Z,54.54
2023-04-26T14:48:43.899Z,54.73
2023-04-26T14:51:14.300Z,54.73
2023-04-26T14:53:44.974Z,55.27
2023-04-26T14:56:15.225Z,54.75
2023-04-26T14:58:48.025Z,55.11
2023-04-26T15:01:18.101Z,55.18
2023-04-26T15:03:48.500Z,55.24
2023-04-26T15:06:21.935Z,55.55
2023-04-26T15:08:52.024Z,55.51
2023-04-26T15:11:26.788Z,55.60
2023-04-26T15:13:59.538Z,55.64
2023-04-26T15:16:29.783Z,55.58
2023-04-26T15:18:59.882Z,55.75
2023-04-26T15:21:30.338Z,55.30
2023-04-26T15:24:04.045Z,55.55
2023-04-26T15:26:35.533Z,55.71
2023-04-26T15:29:08.659Z,56.01
2023-04-26T15:31:39.080Z,55.53
2023-04-26T15:34:10.189Z,55.74
2023-04-26T15:36:42.125Z,55.97
2023-04-26T15:39:12.532Z,55.73
2023-04-26T15:41:42.587Z,55.72
2023-04-26T15:44:15.377Z,55.54
2023-04-26T15:46:46.034Z,55.85
2023-04-26T15:49:17.081Z,55.59
2023-04-26T15:51:47.333Z,55.29
2023-04-26T15:54:17.402Z,55.59
2023-04-26T15:56:47.929Z,55.17
2023-04-26T15:59:20.710Z,55.59
2023-04-26T16:01:51.025Z,55.50
2023-04-26T16:04:22.092Z,55.18
2023-04-26T16:06:52.321Z,55.47
2023-04-26T16:09:25.764Z,55.21
2023-04-26T16:11:56.966Z,55.04
2023-04-26T16:14:29.580Z,55.36
2023-04-26T16:17:03.690Z,55.61
2023-04-26T16:19:33.770Z,55.70
2023-04-26T16:22:07.012Z,56.02
2023-04-26T16:24:37.095Z,55.80
2023-04-26T16:27:07.556Z,55.74
2023-04-26T16:29:40.443Z,55.64
2023-04-26T16:32:10.750Z,55.96
2023-04-26T16:34:40.869Z,56.07
2023-04-26T16:37:13.131Z,55.92
2023-04-26T16:39:43.245Z,55.86
2023-04-26T16:42:13.429Z,56.13
2023-04-26T16:44:46.208Z,56.25
2023-04-26T16:47:16.291Z,56.27
2023-04-26T16:49:46.630Z,56.49
2023-04-26T16:52:16.727Z,56.36
2023-04-26T16:54:46.754Z,56.27
2023-04-26T16:57:17.442Z,56.20
2023-04-26T16:59:50.102Z,56.49
2023-04-26T17:02:20.836Z,56.59
2023-04-26T17:04:51.217Z,56.62
2023-04-26T17:07:23.245Z,56.61
2023-04-26T17:09:55.576Z,56.76
2023-04-26T17:12:26.959Z,56.86
2023-04-26T17:15:01.168Z,56.97
2023-04-26T17:17:32.802Z,56.88
2023-04-26T17:20:05.006Z,57.21
2023-04-26T17:22:35.033Z,57.33
2023-04-26T17:25:05.017Z,57.27
2023-04-26T17:27:35.108Z,57.40
2023-04-26T17:30:09.315Z,57.62
2023-04-26T17:32:39.600Z,57.61
2023-04-26T17:35:10.454Z,57.76
2023-04-26T17:37:42.038Z,57.57
2023-04-26T17:40:14.808Z,57.81
2023-04-26T17:42:48.696Z,58.01
2023-04-26T17:45:21.315Z,57.77
2023-04-26T17:47:51.403Z,57.94
2023-04-26T17:50:24.172Z,57.81
2023-04-26T17:53:00.856Z,57.87
2023-04-26T17:55:31.153Z,57.73
2023-04-26T17:58:01.329Z,57.88
2023-04-26T18:00:33.973Z,57.62
2023-04-26T18:03:05.314Z,57.66
2023-04-26T18:05:35.502Z,57.54
2023-04-26T18:08:05.820Z,57.94
2023-04-26T18:10:36.227Z,57.98
2023-04-26T18:13:06.379Z,58.00
2023-04-26T18:15:41.156Z,58.09
2023-04-26T18:18:11.475Z,57.92
2023-04-26T18:20:41.729Z,57.93
2023-04-26T18:23:12.438Z,57.92
2023-04-26T18:25:42.977Z,57.93
2023-04-26T18:28:20.475Z,57.84
2023-04-26T18:30:53.226Z,58.10
2023-04-26T18:33:23.441Z,58.09
2023-04-26T18:35:55.719Z,58.33
2023-04-26T18:38:26.758Z,58.07
2023-04-26T18:40:58.569Z,58.08
2023-04-26T18:43:28.642Z,58.02
2023-04-26T18:46:01.850Z,58.21
2023-04-26T18:48:32.225Z,58.06
2023-04-26T18:51:02.325Z,58.40
2023-04-26T18:53:32.639Z,58.34
2023-04-26T18:56:02.931Z,58.54
2023-04-26T18:58:33.008Z,58.58
2023-04-26T19:01:06.418Z,58.61
2023-04-26T19:03:39.102Z,58.60
2023-04-26T19:06:15.283Z,58.85
2023-04-26T19:08:45.827Z,58.83
2023-04-26T19:11:16.539Z,58.82
2023-04-26T19:13:46.634Z,58.75
2023-04-26T19:16:19.904Z,58.71
2023-04-26T19:18:50.377Z,58.43
2023-04-26T19:21:22.446Z,58.45
2023-04-26T19:23:58.850Z,58.52
2023-04-26T19:26:28.943Z,58.51
2023-04-26T19:28:59.266Z,58.40
2023-04-26T19:31:32.546Z,58.26
2023-04-26T19:34:04.051Z,58.33
2023-04-26T19:36:34.950Z,58.43
2023-04-26T19:39:05.357Z,58.39
2023-04-26T19:41:35.334Z,58.60
2023-04-26T19:44:06.089Z,58.59
2023-04-26T19:46:38.790Z,58.52
2023-04-26T19:49:09.504Z,58.88
2023-04-26T19:51:39.527Z,58.63
2023-04-26T19:54:09.732Z,58.46
2023-04-26T19:56:43.268Z,58.67
2023-04-26T19:59:15.236Z,58.45
2023-04-26T20:01:51.651Z,58.52
2023-04-26T20:04:23.806Z,58.64
2023-04-26T20:06:54.101Z,58.58
2023-04-26T20:09:24.135Z,58.57
2023-04-26T20:11:55.172Z,58.63
2023-04-26T20:14:26.262Z,58.79
2023-04-26T20:17:02.545Z,58.60
2023-04-26T20:19:33.151Z,58.83
2023-04-26T20:22:03.484Z,58.75
2023-04-26T20:24:34.399Z,58.88
2023-04-26T20:27:08.065Z,58.94
2023-04-26T20:29:38.277Z,59.36
2023-04-26T20:32:12.954Z,59.22
2023-04-26T20:34:43.642Z,59.43
2023-04-26T20:37:13.937Z,59.34
2023-04-26T20:39:44.350Z,59.51
2023-04-26T20:42:22.196Z,59.64
2023-04-26T20:44:52.473Z,59.85
2023-04-26T20:47:26.211Z,59.74
2023-04-26T20:49:57.340Z,59.80
2023-04-26T20:52:27.982Z,59.59
2023-04-26T20:54:58.275Z,59.80
2023-04-26T20:57:29.395Z,59.72
2023-04-26T21:00:00.294Z,59.82
2023-04-26T21:02:34.034Z,59.95
2023-04-26T21:05:04.660Z,59.70
2023-04-26T21:07:35.951Z,59.92
2023-04-26T21:10:06.450Z,59.85
2023-04-26T21:12:37.425Z,59.80
2023-04-26T21:15:08.792Z,60.00
2023-04-26T21:17:46.067Z,60.05
2023-04-26T21:20:16.608Z,60.14
2023-04-26T21:22:50.323Z,60.07
2023-04-26T21:25:20.848Z,60.22
2023-04-26T21:27:51.445Z,60.08
2023-04-26T21:30:21.977Z,59.93
2023-04-26T21:32:54.799Z,59.94
2023-04-26T21:35:25.157Z,60.08
2023-04-26T21:37:55.580Z,60.13
2023-04-26T21:40:25.684Z,60.09
2023-04-26T21:43:04.860Z,60.21
2023-04-26T21:45:35.419Z,60.21
2023-04-26T21:48:08.733Z,60.42
2023-04-26T21:50:39.157Z,60.31
2023-04-26T21:53:09.325Z,60.60
2023-04-26T21:55:40.145Z,60.49
2023-04-26T21:58:11.175Z,60.24
2023-04-26T22:00:41.357Z,60.57
2023-04-26T22:03:17.297Z,60.49
2023-04-26T22:05:49.889Z,60.47
2023-04-26T22:08:19.973Z,60.64
2023-04-26T22:10:50.146Z,60.69
2023-04-26T22:13:20.437Z,60.77
2023-04-26T22:15:50.902Z,60.76
2023-04-26T22:18:23.834Z,60.73
2023-04-26T22:20:53.900Z,61.00
2023-04-26T22:23:24.188Z,60.76
2023-04-26T22:25:54.492Z,60.94
2023-04-26T22:28:26.591Z,60.59
2023-04-26T22:30:59.283Z,60.92
2023-04-26T22:33:31.941Z,60.67
2023-04-26T22:36:03.088Z,60.86
2023-04-26T22:38:33.244Z,60.87
2023-04-26T22:41:04.684Z,60.86
2023-04-26T22:43:35.194Z,60.48
2023-04-26T22:46:05.355Z,60.55
2023-04-26T22:48:38.185Z,60.83
2023-04-26T22:51:08.786Z,60.85
2023-04-26T22:53:39.302Z,61.00
2023-04-26T22:56:10.975Z,61.17
2023-04-26T22:58:43.122Z,60.82
2023-04-26T23:01:14.244Z,60.88
2023-04-26T23:04:03.764Z,61.09
2023-04-26T23:06:35.513Z,61.12
2023-04-26T23:09:07.408Z,60.93
2023-04-26T23:11:37.550Z,61.10
2023-04-26T23:14:07.564Z,60.92
2023-04-26T23:16:39.062Z,61.01
2023-04-26T23:19:11.916Z,60.94
2023-04-26T23:21:45.190Z,60.93
2023-04-26T23:24:24.250Z,61.13
2023-04-26T23:26:54.395Z,61.12
2023-04-26T23:29:24.428Z,61.02
2023-04-26T23:31:54.650Z,61.02
2023-04-26T23:34:27.453Z,61.00
2023-04-26T23:36:58.980Z,61.01
2023-04-26T23:39:38.607Z,61.27
2023-04-26T23:42:08.927Z,61.21
2023-04-26T23:44:40.925Z,61.31
2023-04-26T23:47:10.926Z,61.24
2023-04-26T23:49:44.058Z,61.23
2023-04-26T23:52:14.178Z,61.11
2023-04-26T23:54:44.386Z,61.12
2023-04-26T23:57:16.639Z,61.38
2023-04-26T23:59:52.894Z,61.29
